Lancaster, Minnesota
Current Conditions -  °F | °C
As of 5:54 PM on Friday 19 Dec 2014 (Local Time) from KHCO Reporting Station
Haze Haze  
Wind Chill: 21°   Ceiling: 6000
Heat Index: 28°   Visibility: 2mi
Dew Point: 27°   Wind: 7mph
Humidity: 93%   Direction: 150°SSE
Pressure: 30.03"   Gusts: NA
Location:  48.86°N, 96.8°W
Report Text: KHCO 192354Z AUTO 15006KT 2SM BR OVC060 M02/M03 A3003 RMK AO2
Loading
Personal Weather Stations






























Interactive Weather Map New forecast layout! Learn more

10-Day Weather Forecast

Advertisements
Track Severe Weather on mobile